createdAt,value
2018-06-17T00:00:27.324Z,79.05
2018-06-17T00:01:27.309Z,78.47
2018-06-17T00:02:27.299Z,77.80
2018-06-17T00:03:27.277Z,77.04
2018-06-17T00:04:27.272Z,75.89
2018-06-17T00:05:27.261Z,74.36
2018-06-17T00:06:27.289Z,73.69
2018-06-17T00:07:27.213Z,72.63
2018-06-17T00:08:27.196Z,71.58
2018-06-17T00:09:27.202Z,70.53
2018-06-17T00:10:27.214Z,70.72
2018-06-17T00:11:27.153Z,71.58
2018-06-17T00:12:27.133Z,71.87
2018-06-17T00:13:27.116Z,71.97
2018-06-17T00:14:27.112Z,71.87
2018-06-17T00:15:27.095Z,71.58
2018-06-17T00:16:27.068Z,71.87
2018-06-17T00:17:27.053Z,71.39
2018-06-17T00:18:27.037Z,71.77
2018-06-17T00:19:27.019Z,72.83
2018-06-17T00:20:27.021Z,72.83
2018-06-17T00:21:26.993Z,73.30
2018-06-17T00:22:26.973Z,72.83
2018-06-17T00:23:26.979Z,72.06
2018-06-17T00:24:26.949Z,71.39
2018-06-17T00:25:26.927Z,70.97
2018-06-17T00:26:26.904Z,69.92
2018-06-17T00:27:26.930Z,69.15
2018-06-17T00:28:26.874Z,69.06
2018-06-17T00:29:26.859Z,69.15
2018-06-17T00:30:26.859Z,68.87
2018-06-17T00:31:26.832Z,69.35
2018-06-17T00:32:26.812Z,69.35
2018-06-17T00:33:26.799Z,69.82
2018-06-17T00:34:26.776Z,69.64
2018-06-17T00:35:26.763Z,69.64
2018-06-17T00:36:26.755Z,69.73
2018-06-17T00:37:26.733Z,70.40
2018-06-17T00:38:26.722Z,71.55
2018-06-17T00:39:26.699Z,72.69
2018-06-17T00:40:26.683Z,73.65
2018-06-17T00:41:26.677Z,73.75
2018-06-17T00:42:26.648Z,75.76
2018-06-17T00:43:26.635Z,76.33
2018-06-17T00:44:26.621Z,75.66
2018-06-17T00:45:26.598Z,74.80
2018-06-17T00:46:26.600Z,74.90
2018-06-17T00:47:26.570Z,74.13
2018-06-17T00:48:26.561Z,73.94
2018-06-17T00:49:26.533Z,73.84
2018-06-17T00:50:26.520Z,73.75
2018-06-17T00:51:26.505Z,73.65
2018-06-17T00:52:26.491Z,73.94
2018-06-17T00:53:26.474Z,73.94
2018-06-17T00:54:26.452Z,73.36
2018-06-17T00:55:26.435Z,72.69
2018-06-17T00:56:26.439Z,72.98
2018-06-17T00:57:26.408Z,72.79
2018-06-17T00:58:26.387Z,72.60
2018-06-17T00:59:26.371Z,72.50
2018-06-17T01:00:26.365Z,72.50
2018-06-17T01:01:26.342Z,71.55
2018-06-17T01:02:26.333Z,71.36
2018-06-17T01:03:26.307Z,71.64
2018-06-17T01:04:26.289Z,71.64
2018-06-17T01:05:26.274Z,70.21
2018-06-17T01:06:26.259Z,69.92
2018-06-17T01:07:26.252Z,70.30
2018-06-17T01:08:26.226Z,69.92
2018-06-17T01:09:26.204Z,69.54
2018-06-17T01:10:26.193Z,69.44
2018-06-17T01:11:26.173Z,69.35
2018-06-17T01:12:26.167Z,69.82
2018-06-17T01:13:26.142Z,69.54
2018-06-17T01:14:26.135Z,69.54
2018-06-17T01:15:26.104Z,68.68
2018-06-17T01:16:26.100Z,68.68
2018-06-17T01:17:26.092Z,68.68
2018-06-17T01:18:26.058Z,67.82
2018-06-17T01:19:26.043Z,68.01
2018-06-17T01:20:26.031Z,68.10
2018-06-17T01:21:26.010Z,67.63
2018-06-17T01:22:25.994Z,67.91
2018-06-17T01:23:25.990Z,68.01
2018-06-17T01:24:25.962Z,67.91
2018-06-17T01:25:25.945Z,67.82
2018-06-17T01:26:25.929Z,68.29
2018-06-17T01:27:25.920Z,67.53
2018-06-17T01:28:25.914Z,67.82
2018-06-17T01:29:25.889Z,68.29
2018-06-17T01:30:25.864Z,68.77
2018-06-17T01:31:25.845Z,68.87
2018-06-17T01:32:25.830Z,68.68
2018-06-17T01:33:25.838Z,68.29
2018-06-17T01:34:25.800Z,68.29
2018-06-17T01:35:25.779Z,68.96
2018-06-17T01:36:25.772Z,68.87
2018-06-17T01:37:25.749Z,68.87
2018-06-17T01:38:25.732Z,68.87
2018-06-17T01:39:25.724Z,69.25
2018-06-17T01:40:25.699Z,68.87
2018-06-17T01:41:25.683Z,68.77
2018-06-17T01:42:25.666Z,68.58
2018-06-17T01:43:25.653Z,68.68
2018-06-17T01:44:25.643Z,68.93
2018-06-17T01:45:25.616Z,68.55
2018-06-17T01:46:25.601Z,70.50
2018-06-17T01:47:25.584Z,72.37
2018-06-17T01:48:25.569Z,71.73
2018-06-17T01:49:25.569Z,72.22
2018-06-17T01:50:25.537Z,75.56
2018-06-17T01:51:25.518Z,75.34
2018-06-17T01:52:25.500Z,75.71
2018-06-17T01:53:25.487Z,80.21
2018-06-17T01:54:25.480Z,82.64
2018-06-17T01:55:25.452Z,83.56
2018-06-17T01:56:25.436Z,85.03
2018-06-17T01:57:25.424Z,82.89
2018-06-17T01:58:25.406Z,82.64
2018-06-17T01:59:25.417Z,82.26
2018-06-17T02:00:25.372Z,80.98
2018-06-17T02:01:25.355Z,79.68
2018-06-17T02:02:25.338Z,80.02
2018-06-17T02:03:25.324Z,78.68
2018-06-17T02:04:25.300Z,76.86
2018-06-17T02:05:25.301Z,74.95
2018-06-17T02:06:25.270Z,73.90
2018-06-17T02:07:25.270Z,73.61
2018-06-17T02:08:25.242Z,74.09
2018-06-17T02:09:25.222Z,74.57
2018-06-17T02:10:25.223Z,73.80
2018-06-17T02:11:25.188Z,73.61
2018-06-17T02:12:25.173Z,72.37
2018-06-17T02:13:25.152Z,72.24
2018-06-17T02:14:25.145Z,71.38
2018-06-17T02:15:25.118Z,71.42
2018-06-17T02:16:25.116Z,70.81
2018-06-17T02:17:25.092Z,70.42
2018-06-17T02:18:25.073Z,70.42
2018-06-17T02:19:25.058Z,69.85
2018-06-17T02:20:25.038Z,70.14
2018-06-17T02:21:25.047Z,69.66
2018-06-17T02:22:25.008Z,69.85
2018-06-17T02:23:24.993Z,70.14
2018-06-17T02:24:24.979Z,70.33
2018-06-17T02:25:24.955Z,70.71
2018-06-17T02:26:24.946Z,70.81
2018-06-17T02:27:24.925Z,70.33
2018-06-17T02:28:24.906Z,71.09
2018-06-17T02:29:24.890Z,70.14
2018-06-17T02:30:24.872Z,71.00
2018-06-17T02:31:24.886Z,71.00
2018-06-17T02:32:24.838Z,70.52
2018-06-17T02:33:24.817Z,71.09
2018-06-17T02:34:24.805Z,71.86
2018-06-17T02:35:24.792Z,71.57
2018-06-17T02:36:24.770Z,72.14
2018-06-17T02:37:24.775Z,71.76
2018-06-17T02:38:24.739Z,71.67
2018-06-17T02:39:24.720Z,71.95
2018-06-17T02:40:24.706Z,72.53
2018-06-17T02:41:24.686Z,72.33
2018-06-17T02:42:24.684Z,71.95
2018-06-17T02:43:24.652Z,71.38
2018-06-17T02:44:24.636Z,71.47
2018-06-17T02:45:24.622Z,71.38
2018-06-17T02:46:24.607Z,72.14
2018-06-17T02:47:24.585Z,71.67
2018-06-17T02:48:24.582Z,72.72
2018-06-17T02:49:24.552Z,72.81
2018-06-17T02:50:24.536Z,74.53
2018-06-17T02:51:24.515Z,74.53
2018-06-17T02:52:24.506Z,74.63
2018-06-17T02:53:24.497Z,75.10
2018-06-17T02:54:24.474Z,74.73
2018-06-17T02:55:24.454Z,73.29
2018-06-17T02:56:24.434Z,71.76
2018-06-17T02:57:24.420Z,71.28
2018-06-17T02:58:24.415Z,70.33
2018-06-17T02:59:24.392Z,69.27
2018-06-17T03:00:24.371Z,69.76
2018-06-17T03:01:24.351Z,69.85
2018-06-17T03:02:24.333Z,69.76
2018-06-17T03:03:24.318Z,70.14
2018-06-17T03:04:24.312Z,69.47
2018-06-17T03:05:24.287Z,69.66
2018-06-17T03:06:24.277Z,69.76
2018-06-17T03:07:24.247Z,69.18
2018-06-17T03:08:24.231Z,68.99
2018-06-17T03:09:24.224Z,68.96
2018-06-17T03:10:24.197Z,68.90
2018-06-17T03:11:24.182Z,68.13
2018-06-17T03:12:24.185Z,67.08
2018-06-17T03:13:24.158Z,67.18
2018-06-17T03:14:24.166Z,67.36
2018-06-17T03:15:24.112Z,67.18
2018-06-17T03:16:24.098Z,67.55
2018-06-17T03:17:24.081Z,67.46
2018-06-17T03:18:24.062Z,67.27
2018-06-17T03:19:24.051Z,67.08
2018-06-17T03:20:24.036Z,67.08
2018-06-17T03:21:24.009Z,67.27
2018-06-17T03:22:23.994Z,67.18
2018-06-17T03:23:23.978Z,67.75
2018-06-17T03:24:23.961Z,67.46
2018-06-17T03:25:23.954Z,67.18
2018-06-17T03:26:23.925Z,67.27
2018-06-17T03:27:23.909Z,67.46
2018-06-17T03:28:23.893Z,67.65
2018-06-17T03:29:23.873Z,68.13
2018-06-17T03:30:23.879Z,68.51
2018-06-17T03:31:23.839Z,68.80
2018-06-17T03:32:23.826Z,69.09
2018-06-17T03:33:23.807Z,69.37
2018-06-17T03:34:23.798Z,69.27
2018-06-17T03:35:23.772Z,69.85
2018-06-17T03:36:23.778Z,70.33
2018-06-17T03:37:23.740Z,71.09
2018-06-17T03:38:23.729Z,70.90
2018-06-17T03:39:23.705Z,70.90
2018-06-17T03:40:23.692Z,70.52
2018-06-17T03:41:23.686Z,69.66
2018-06-17T03:42:23.656Z,69.09
2018-06-17T03:43:23.641Z,68.61
2018-06-17T03:44:23.620Z,68.80
2018-06-17T03:45:23.608Z,68.32
2018-06-17T03:46:23.588Z,68.23
2018-06-17T03:48:23.560Z,68.80
2018-06-17T03:49:23.536Z,68.32
2018-06-17T03:50:23.520Z,68.70
2018-06-17T03:51:23.505Z,69.02
2018-06-17T03:52:23.496Z,68.45
2018-06-17T03:53:23.469Z,68.80
2018-06-17T03:54:23.454Z,68.93
2018-06-17T03:55:23.436Z,68.35
2018-06-17T03:56:23.419Z,69.31
2018-06-17T03:57:23.421Z,69.31
2018-06-17T03:58:23.389Z,69.79
2018-06-17T03:59:23.371Z,69.70
2018-06-17T04:00:23.352Z,71.03
2018-06-17T04:01:23.343Z,70.56
2018-06-17T04:02:23.336Z,69.50
2018-06-17T04:03:23.300Z,71.99
2018-06-17T04:04:23.286Z,72.47
2018-06-17T04:05:23.268Z,71.61
2018-06-17T04:06:23.257Z,71.51
2018-06-17T04:07:23.234Z,72.37
2018-06-17T04:08:23.240Z,74.57
2018-06-17T04:09:23.204Z,78.39
2018-06-17T04:10:23.285Z,80.69
2018-06-17T04:11:23.168Z,80.59
2018-06-17T04:12:23.151Z,81.07
2018-06-17T04:13:23.134Z,80.98
2018-06-17T04:14:23.131Z,78.05
2018-06-17T04:15:23.105Z,79.68
2018-06-17T04:16:23.092Z,81.21
2018-06-17T04:17:23.071Z,81.40
2018-06-17T04:18:23.056Z,79.49
2018-06-17T04:19:23.044Z,79.39
2018-06-17T04:20:23.023Z,78.81
2018-06-17T04:21:23.002Z,78.53
2018-06-17T04:22:22.986Z,83.12
2018-06-17T04:23:22.967Z,83.98
2018-06-17T04:24:22.963Z,82.83
2018-06-17T04:25:22.943Z,81.21
2018-06-17T04:26:22.920Z,80.35
2018-06-17T04:27:22.904Z,79.68
2018-06-17T04:28:22.886Z,78.76
2018-06-17T04:29:22.885Z,78.28
2018-06-17T04:30:22.856Z,79.14
2018-06-17T04:31:22.839Z,79.05
2018-06-17T04:32:22.821Z,81.82
2018-06-17T04:33:22.807Z,84.08
2018-06-17T04:34:22.793Z,84.88
2018-06-17T04:35:22.788Z,86.80
2018-06-17T04:36:22.759Z,86.32
2018-06-17T04:37:22.744Z,82.11
2018-06-17T04:38:22.725Z,85.94
2018-06-17T04:39:22.713Z,86.04
2018-06-17T04:40:22.708Z,82.78
2018-06-17T04:41:22.674Z,87.47
2018-06-17T04:42:22.661Z,89.09
2018-06-17T04:43:22.649Z,91.39
2018-06-17T04:44:22.631Z,90.15
2018-06-17T04:45:22.623Z,88.71
2018-06-17T04:46:22.600Z,89.09
2018-06-17T04:47:22.629Z,91.68
2018-06-17T04:48:22.574Z,91.87
2018-06-17T04:49:22.550Z,93.50
2018-06-17T04:50:22.543Z,93.69
2018-06-17T04:51:22.518Z,92.83
2018-06-17T04:52:22.509Z,94.65
2018-06-17T04:53:22.484Z,93.98
2018-06-17T04:54:22.466Z,90.67
2018-06-17T04:55:22.471Z,89.04
2018-06-17T04:56:22.436Z,87.70
2018-06-17T04:57:22.427Z,88.95
2018-06-17T04:58:22.407Z,89.33
2018-06-17T04:59:22.390Z,87.99
2018-06-17T05:00:22.377Z,87.61
2018-06-17T05:01:22.369Z,88.76
2018-06-17T05:02:22.342Z,88.47
2018-06-17T05:03:22.325Z,88.18
2018-06-17T05:04:22.311Z,87.32
2018-06-17T05:05:22.294Z,87.61
2018-06-17T05:06:22.291Z,89.33
2018-06-17T05:07:22.265Z,90.77
2018-06-17T05:08:22.249Z,88.66
2018-06-17T05:09:22.230Z,85.41
2018-06-17T05:10:22.238Z,87.70
2018-06-17T05:11:22.228Z,85.98
2018-06-17T05:12:22.184Z,91.25
2018-06-17T05:13:22.170Z,88.56
2018-06-17T05:14:22.155Z,91.58
2018-06-17T05:15:22.138Z,94.45
2018-06-17T05:16:22.126Z,94.26
2018-06-17T05:17:22.121Z,96.18
2018-06-17T05:18:22.094Z,98.57
2018-06-17T05:19:22.078Z,96.94
2018-06-17T05:20:22.060Z,96.75
2018-06-17T05:21:22.043Z,94.07
2018-06-17T05:22:22.037Z,98.96
2018-06-17T05:23:22.012Z,97.23
2018-06-17T05:24:21.998Z,96.08
2018-06-17T05:25:21.979Z,98.43
2018-06-17T05:26:21.968Z,93.88
2018-06-17T05:27:21.971Z,99.72
2018-06-17T05:28:21.936Z,96.08
2018-06-17T05:29:21.922Z,95.89
2018-06-17T05:30:21.903Z,99.99
2018-06-17T05:31:21.897Z,99.01
2018-06-17T05:32:21.881Z,95.17
2018-06-17T05:33:21.892Z,99.39
2018-06-17T05:34:21.841Z,99.99
2018-06-17T05:35:21.828Z,97.85
2018-06-17T05:36:21.815Z,99.99
2018-06-17T05:37:21.797Z,99.99
2018-06-17T05:38:21.794Z,99.99
2018-06-17T05:39:21.770Z,99.99
2018-06-17T05:40:21.757Z,99.99
2018-06-17T05:41:21.737Z,99.99
2018-06-17T05:42:21.722Z,99.99
2018-06-17T05:43:21.719Z,99.99
2018-06-17T05:44:21.693Z,99.99
2018-06-17T05:45:21.679Z,99.99
2018-06-17T05:46:21.664Z,99.99
2018-06-17T05:47:21.652Z,99.99
2018-06-17T05:48:21.648Z,99.99
2018-06-17T05:49:21.623Z,99.99
2018-06-17T05:50:21.610Z,99.99
2018-06-17T05:51:21.594Z,99.99
2018-06-17T05:52:21.570Z,99.99
2018-06-17T05:53:21.563Z,99.99
2018-06-17T05:54:21.561Z,99.99
2018-06-17T05:55:21.532Z,99.99
2018-06-17T05:56:21.514Z,99.99
2018-06-17T05:57:21.499Z,99.99
2018-06-17T05:58:21.502Z,99.99
2018-06-17T05:59:21.481Z,99.99
2018-06-17T06:00:21.458Z,99.99
2018-06-17T06:01:21.436Z,99.99
2018-06-17T06:02:21.427Z,99.99
2018-06-17T06:03:21.412Z,99.99
2018-06-17T06:04:21.462Z,99.99
2018-06-17T06:05:21.379Z,99.99
2018-06-17T06:06:21.368Z,99.99
2018-06-17T06:07:21.351Z,99.99
2018-06-17T06:08:21.336Z,99.99
2018-06-17T06:09:21.325Z,99.99
2018-06-17T06:10:21.335Z,99.99
2018-06-17T06:11:21.298Z,99.99
2018-06-17T06:12:21.285Z,99.99
2018-06-17T06:13:21.268Z,99.99
2018-06-17T06:14:21.253Z,99.99
2018-06-17T06:15:21.247Z,99.99
2018-06-17T06:16:21.225Z,99.99
2018-06-17T06:17:21.214Z,99.99
2018-06-17T06:18:21.197Z,99.99
2018-06-17T06:19:21.182Z,99.99
2018-06-17T06:20:21.184Z,99.99
2018-06-17T06:21:21.159Z,99.99
2018-06-17T06:22:21.141Z,99.99
2018-06-17T06:23:21.128Z,99.99
2018-06-17T06:24:21.115Z,99.99
2018-06-17T06:25:21.098Z,99.99
2018-06-17T06:26:21.100Z,99.99
2018-06-17T06:27:21.074Z,99.99
2018-06-17T06:28:21.066Z,99.99
2018-06-17T06:29:21.045Z,99.99
2018-06-17T06:30:21.029Z,99.99
2018-06-17T06:31:21.938Z,99.99
2018-06-17T06:32:21.003Z,99.99
2018-06-17T06:33:20.988Z,99.99
2018-06-17T06:34:20.974Z,99.99
2018-06-17T06:35:20.960Z,99.99
2018-06-17T06:36:20.954Z,99.99
2018-06-17T06:37:20.979Z,99.99
2018-06-17T06:38:20.919Z,99.99
2018-06-17T06:39:20.909Z,99.99
2018-06-17T06:40:20.894Z,99.99
2018-06-17T06:41:20.893Z,99.99
2018-06-17T06:42:20.865Z,99.99
2018-06-17T06:43:20.857Z,99.99
2018-06-17T06:44:20.837Z,99.99
2018-06-17T06:45:20.865Z,99.99
2018-06-17T06:46:20.818Z,99.99
2018-06-17T06:47:20.811Z,99.99
2018-06-17T06:48:20.789Z,99.99
2018-06-17T06:49:20.768Z,99.99
2018-06-17T06:50:20.786Z,99.99
2018-06-17T06:51:20.744Z,99.99
2018-06-17T06:52:20.747Z,99.99
2018-06-17T06:53:20.715Z,99.99
2018-06-17T06:54:20.702Z,99.99
2018-06-17T06:55:20.689Z,99.99
2018-06-17T06:56:20.680Z,99.99
2018-06-17T06:57:20.680Z,99.99
2018-06-17T06:58:20.651Z,99.99
2018-06-17T06:59:20.634Z,99.99
2018-06-17T07:00:20.621Z,99.99
2018-06-17T07:01:20.609Z,99.99
2018-06-17T07:02:20.599Z,99.99
2018-06-17T07:03:20.589Z,99.99
2018-06-17T07:04:20.568Z,99.99
2018-06-17T07:05:20.553Z,99.99
2018-06-17T07:06:20.543Z,99.99
2018-06-17T07:07:20.535Z,99.99
2018-06-17T07:08:20.530Z,99.99
2018-06-17T07:09:20.497Z,99.99
2018-06-17T07:10:20.486Z,99.99
2018-06-17T07:11:20.478Z,99.99
2018-06-17T07:12:20.456Z,99.99
2018-06-17T07:13:20.486Z,99.99
2018-06-17T07:14:20.445Z,99.99
2018-06-17T07:15:20.420Z,99.99
2018-06-17T07:16:20.403Z,99.99
2018-06-17T07:17:20.389Z,99.99
2018-06-17T07:18:20.375Z,99.99
2018-06-17T07:19:20.374Z,99.99
2018-06-17T07:20:20.347Z,99.99
2018-06-17T07:21:20.335Z,99.99
2018-06-17T07:22:20.320Z,99.99
2018-06-17T07:23:20.307Z,99.99
2018-06-17T07:24:20.309Z,98.05
2018-06-17T07:25:20.283Z,96.17
2018-06-17T07:26:20.281Z,94.15
2018-06-17T07:27:20.255Z,96.12
2018-06-17T07:28:20.236Z,92.37
2018-06-17T07:29:20.222Z,93.05
2018-06-17T07:30:20.229Z,95.26
2018-06-17T07:31:20.206Z,97.14
2018-06-17T07:32:20.186Z,96.66
2018-06-17T07:33:20.169Z,99.44
2018-06-17T07:34:20.158Z,97.67
2018-06-17T07:35:20.156Z,99.99
2018-06-17T07:36:20.136Z,99.99
2018-06-17T07:37:20.119Z,99.99
2018-06-17T07:38:20.102Z,99.99
2018-06-17T07:39:20.092Z,99.99
2018-06-17T07:40:20.090Z,99.99
2018-06-17T07:41:20.069Z,97.76
2018-06-17T07:42:20.052Z,97.09
2018-06-17T07:43:20.040Z,94.64
2018-06-17T07:44:20.033Z,96.47
2018-06-17T07:45:20.050Z,97.91
2018-06-17T07:46:20.015Z,99.99
2018-06-17T07:47:19.986Z,99.99
2018-06-17T07:48:19.974Z,99.99
2018-06-17T07:49:19.991Z,99.99
2018-06-17T07:50:19.949Z,99.99
2018-06-17T07:51:19.945Z,99.99
2018-06-17T07:52:19.925Z,99.98
2018-06-17T07:53:19.908Z,99.68
2018-06-17T07:54:19.897Z,99.99
2018-06-17T07:55:19.884Z,99.99
2018-06-17T07:56:19.883Z,99.83
2018-06-17T07:57:19.860Z,98.72
2018-06-17T07:58:19.849Z,99.99
2018-06-17T07:59:19.831Z,99.99
2018-06-17T08:00:19.820Z,99.68
2018-06-17T08:01:19.818Z,99.21
2018-06-17T08:02:19.791Z,97.96
2018-06-17T08:03:19.776Z,99.06
2018-06-17T08:04:19.763Z,99.26
2018-06-17T08:05:19.753Z,97.04
2018-06-17T08:06:19.740Z,97.14
2018-06-17T08:07:19.740Z,95.98
2018-06-17T08:08:19.715Z,97.71
2018-06-17T08:09:19.700Z,98.58
2018-06-17T08:10:19.689Z,98.24
2018-06-17T08:11:19.674Z,95.65
2018-06-17T08:12:19.676Z,96.90
2018-06-17T08:13:19.649Z,96.94
2018-06-17T08:14:19.634Z,99.06
2018-06-17T08:15:19.625Z,96.89
2018-06-17T08:16:19.611Z,95.65
2018-06-17T08:17:19.598Z,97.76
2018-06-17T08:18:19.592Z,94.15
2018-06-17T08:19:19.578Z,96.08
2018-06-17T08:20:19.560Z,95.94
2018-06-17T08:21:19.545Z,97.09
2018-06-17T08:22:19.532Z,96.51
2018-06-17T08:23:19.528Z,95.26
2018-06-17T08:24:19.509Z,97.24
2018-06-17T08:25:19.493Z,94.10
2018-06-17T08:26:19.482Z,93.24
2018-06-17T08:27:19.466Z,96.56
2018-06-17T08:28:19.480Z,94.25
2018-06-17T08:29:19.446Z,90.01
2018-06-17T08:30:19.431Z,91.55
2018-06-17T08:31:19.429Z,91.46
2018-06-17T08:32:19.405Z,93.96
2018-06-17T08:33:19.396Z,92.32
2018-06-17T08:34:19.400Z,93.15
2018-06-17T08:35:19.367Z,97.24
2018-06-17T08:36:19.378Z,91.51
2018-06-17T08:37:19.343Z,94.20
2018-06-17T08:38:19.331Z,93.91
2018-06-17T08:39:19.317Z,97.09
2018-06-17T08:40:19.321Z,94.01
2018-06-17T08:41:19.300Z,92.95
2018-06-17T08:42:19.285Z,93.53
2018-06-17T08:43:19.272Z,91.80
2018-06-17T08:44:19.262Z,94.87
2018-06-17T08:45:19.250Z,95.65
2018-06-17T08:46:19.234Z,92.38
2018-06-17T08:47:19.223Z,93.67
2018-06-17T08:48:19.205Z,90.83
2018-06-17T08:49:19.201Z,92.47
2018-06-17T08:50:19.194Z,91.41
2018-06-17T08:51:19.172Z,90.35
2018-06-17T08:52:19.155Z,90.20
2018-06-17T08:53:19.145Z,86.41
2018-06-17T08:54:19.191Z,89.39
2018-06-17T08:55:19.132Z,90.59
2018-06-17T08:56:19.112Z,93.19
2018-06-17T08:57:19.094Z,91.80
2018-06-17T08:58:19.082Z,94.20
2018-06-17T08:59:19.074Z,94.10
2018-06-17T09:00:19.130Z,94.87
2018-06-17T09:01:19.053Z,92.04
2018-06-17T09:02:19.037Z,90.31
2018-06-17T09:03:19.025Z,92.95
2018-06-17T09:04:19.008Z,94.20
2018-06-17T09:05:18.997Z,96.03
2018-06-17T09:06:19.012Z,94.87
2018-06-17T09:07:18.970Z,90.30
2018-06-17T09:08:18.959Z,93.09
2018-06-17T09:09:18.945Z,90.30
2018-06-17T09:10:18.934Z,87.84
2018-06-17T09:11:18.935Z,88.95
2018-06-17T09:12:18.973Z,87.94
2018-06-17T09:13:18.898Z,90.83
2018-06-17T09:14:18.884Z,83.80
2018-06-17T09:15:18.871Z,85.24
2018-06-17T09:16:18.872Z,85.09
2018-06-17T09:17:18.853Z,89.43
2018-06-17T09:18:18.843Z,83.74
2018-06-17T09:19:18.843Z,83.84
2018-06-17T09:20:18.822Z,82.53
2018-06-17T09:21:18.809Z,79.74
2018-06-17T09:22:18.788Z,76.65
2018-06-17T09:23:18.776Z,79.54
2018-06-17T09:24:18.760Z,83.16
2018-06-17T09:25:18.816Z,84.80
2018-06-17T09:26:18.750Z,84.46
2018-06-17T09:27:18.730Z,82.24
2018-06-17T09:28:18.718Z,78.77
2018-06-17T09:29:18.706Z,89.09
2018-06-17T09:30:18.694Z,86.19
2018-06-17T09:31:18.694Z,86.82
2018-06-17T09:32:18.703Z,87.79
2018-06-17T09:33:18.666Z,86.63
2018-06-17T09:34:18.649Z,88.65
2018-06-17T09:35:18.633Z,87.70
2018-06-17T09:36:18.641Z,90.20
2018-06-17T09:37:18.612Z,88.56
2018-06-17T09:38:18.601Z,87.88
2018-06-17T09:39:18.588Z,85.05
2018-06-17T09:40:18.579Z,85.72
2018-06-17T09:41:18.585Z,87.65
2018-06-17T09:42:18.565Z,87.65
2018-06-17T09:43:18.544Z,82.83
2018-06-17T09:44:18.562Z,82.78
2018-06-17T09:45:18.519Z,81.52
2018-06-17T09:46:18.507Z,79.74
2018-06-17T09:47:18.525Z,80.60
2018-06-17T09:48:18.485Z,81.76
2018-06-17T09:49:18.477Z,80.26
2018-06-17T09:50:18.464Z,79.77
2018-06-17T09:51:18.462Z,78.71
2018-06-17T09:52:18.449Z,76.84
2018-06-17T09:53:18.427Z,76.55
2018-06-17T09:54:18.421Z,74.62
2018-06-17T09:55:18.403Z,75.20
2018-06-17T09:56:18.389Z,77.48
2018-06-17T09:57:18.390Z,77.19
2018-06-17T09:58:18.371Z,77.96
2018-06-17T09:59:18.361Z,75.30
2018-06-17T10:00:18.348Z,75.59
2018-06-17T10:01:18.355Z,74.72
2018-06-17T10:02:18.341Z,73.50
2018-06-17T10:03:18.312Z,72.92
2018-06-17T10:04:18.303Z,72.60
2018-06-17T10:05:18.292Z,72.99
2018-06-17T10:06:18.281Z,72.99
2018-06-17T10:07:18.267Z,71.58
2018-06-17T10:08:18.278Z,72.15
2018-06-17T10:09:18.247Z,69.00
2018-06-17T10:10:18.234Z,71.80
2018-06-17T10:11:18.227Z,70.58
2018-06-17T10:12:18.214Z,73.48
2018-06-17T10:13:18.200Z,69.20
2018-06-17T10:14:18.210Z,71.84
2018-06-17T10:15:18.183Z,73.77
2018-06-17T10:16:18.168Z,72.19
2018-06-17T10:17:18.158Z,77.34
2018-06-17T10:18:18.146Z,75.18
2018-06-17T10:19:18.140Z,70.16
2018-06-17T10:20:18.125Z,72.89
2018-06-17T10:21:18.116Z,73.62
2018-06-17T10:22:18.101Z,77.38
2018-06-17T10:23:18.086Z,77.00
2018-06-17T10:24:18.089Z,77.90
2018-06-17T10:25:18.069Z,73.18
2018-06-17T10:26:18.061Z,74.10
2018-06-17T10:27:18.046Z,72.66
2018-06-17T10:28:18.034Z,75.74
2018-06-17T10:29:18.052Z,71.41
2018-06-17T10:30:18.022Z,72.12
2018-06-17T10:31:17.999Z,71.83
2018-06-17T10:32:17.991Z,71.44
2018-06-17T10:33:17.978Z,70.48
2018-06-17T10:34:17.967Z,69.61
2018-06-17T10:35:17.975Z,69.64
2018-06-17T10:36:17.944Z,69.26
2018-06-17T10:37:17.931Z,68.71
2018-06-17T10:38:17.927Z,69.58
2018-06-17T10:39:17.910Z,70.06
2018-06-17T10:40:17.902Z,71.64
2018-06-17T10:41:17.897Z,70.00
2018-06-17T10:42:17.877Z,68.91
2018-06-17T10:43:17.867Z,66.94
2018-06-17T10:44:17.885Z,69.35
2018-06-17T10:45:17.838Z,68.16
2018-06-17T10:46:17.843Z,69.03
2018-06-17T10:47:17.820Z,70.22
2018-06-17T10:48:17.810Z,69.49
2018-06-17T10:49:17.799Z,69.87
2018-06-17T10:50:17.796Z,67.11
2018-06-17T10:51:17.797Z,66.63
2018-06-17T10:52:17.766Z,66.49
2018-06-17T10:53:17.754Z,66.11
2018-06-17T10:54:17.749Z,68.23
2018-06-17T10:55:17.734Z,67.27
2018-06-17T10:56:17.806Z,67.36
2018-06-17T10:57:17.725Z,69.68
2018-06-17T10:58:17.701Z,66.56
2018-06-17T10:59:17.689Z,67.04
2018-06-17T11:00:17.678Z,67.14
2018-06-17T11:01:17.718Z,68.04
2018-06-17T11:02:17.683Z,67.75
2018-06-17T11:03:17.645Z,68.07
2018-06-17T11:04:17.637Z,66.63
2018-06-17T11:05:17.697Z,65.72
2018-06-17T11:06:17.618Z,65.63
2018-06-17T11:07:17.603Z,67.40
2018-06-17T11:08:17.600Z,68.84
2018-06-17T11:09:17.580Z,65.40
2018-06-17T11:10:17.570Z,63.76
2018-06-17T11:11:17.557Z,66.17
2018-06-17T11:12:17.547Z,63.18
2018-06-17T11:13:17.625Z,67.78
2018-06-17T11:14:17.530Z,66.59
2018-06-17T11:15:17.520Z,67.43
2018-06-17T11:16:17.506Z,68.01
2018-06-17T11:17:17.498Z,68.74
2018-06-17T11:18:17.511Z,68.84
2018-06-17T11:19:17.469Z,68.35
2018-06-17T11:20:17.472Z,68.61
2018-06-17T11:21:17.455Z,68.80
2018-06-17T11:22:17.442Z,70.38
2018-06-17T11:23:17.425Z,69.96
2018-06-17T11:24:17.439Z,69.64
2018-06-17T11:25:17.407Z,70.54
2018-06-17T11:26:17.392Z,69.77
2018-06-17T11:27:17.400Z,68.55
2018-06-17T11:28:17.371Z,69.16
2018-06-17T11:29:17.373Z,67.30
2018-06-17T11:30:17.346Z,66.94
2018-06-17T11:31:17.364Z,66.27
2018-06-17T11:32:17.329Z,66.20
2018-06-17T11:33:17.314Z,66.01
2018-06-17T11:34:17.303Z,64.79
2018-06-17T11:35:17.311Z,62.76
2018-06-17T11:36:17.278Z,62.66
2018-06-17T11:37:17.268Z,63.08
2018-06-17T11:38:17.258Z,61.15
2018-06-17T11:39:17.246Z,60.21
2018-06-17T11:40:17.235Z,59.28
2018-06-17T11:41:17.235Z,59.38
2018-06-17T11:42:17.214Z,59.05
2018-06-17T11:43:17.204Z,61.73
2018-06-17T11:44:17.192Z,61.83
2018-06-17T11:45:17.181Z,62.66
2018-06-17T11:46:17.182Z,64.40
2018-06-17T11:47:17.161Z,65.56
2018-06-17T11:48:17.149Z,64.40
2018-06-17T11:49:17.144Z,64.50
2018-06-17T11:50:17.129Z,64.95
2018-06-17T11:51:17.132Z,66.63
2018-06-17T11:52:17.106Z,66.78
2018-06-17T11:53:17.107Z,66.88
2018-06-17T11:54:17.084Z,65.75
2018-06-17T11:55:17.086Z,68.07
2018-06-17T11:56:17.074Z,64.37
2018-06-17T11:57:17.048Z,64.43
2018-06-17T11:58:17.042Z,65.59
2018-06-17T11:59:17.031Z,65.50
2018-06-17T12:00:17.019Z,66.56
2018-06-17T12:01:17.009Z,65.50
2018-06-17T12:02:17.029Z,66.78
2018-06-17T12:03:16.984Z,65.59
2018-06-17T12:04:16.975Z,65.05
2018-06-17T12:05:16.964Z,64.66
2018-06-17T12:06:16.953Z,66.17
2018-06-17T12:07:16.962Z,67.10
2018-06-17T12:08:16.931Z,66.46
2018-06-17T12:09:16.920Z,66.75
2018-06-17T12:10:16.910Z,68.07
2018-06-17T12:11:16.896Z,67.07
2018-06-17T12:12:16.887Z,67.94
2018-06-17T12:13:16.890Z,68.61
2018-06-17T12:14:16.862Z,70.57
2018-06-17T12:15:16.853Z,68.84
2018-06-17T12:16:16.849Z,69.19
2018-06-17T12:17:16.835Z,69.90
2018-06-17T12:18:16.829Z,69.71
2018-06-17T12:19:16.808Z,70.54
2018-06-17T12:20:16.802Z,72.47
2018-06-17T12:21:16.786Z,72.66
2018-06-17T12:22:16.772Z,72.66
2018-06-17T12:23:16.781Z,71.06
2018-06-17T12:24:16.748Z,69.77
2018-06-17T12:25:16.739Z,70.73
2018-06-17T12:26:16.733Z,71.12
2018-06-17T12:27:16.715Z,71.89
2018-06-17T12:28:16.720Z,72.08
2018-06-17T12:29:16.694Z,73.24
2018-06-17T12:30:16.680Z,72.53
2018-06-17T12:31:16.674Z,72.24
2018-06-17T12:32:16.658Z,73.39
2018-06-17T12:33:16.647Z,75.13
2018-06-17T12:34:16.651Z,75.32
2018-06-17T12:35:16.636Z,75.93
2018-06-17T12:36:16.608Z,73.30
2018-06-17T12:37:16.595Z,73.20
2018-06-17T12:38:16.587Z,73.88
2018-06-17T12:39:16.571Z,74.74
2018-06-17T12:40:16.570Z,76.23
2018-06-17T12:41:16.547Z,74.78
2018-06-17T12:42:16.554Z,73.97
2018-06-17T12:43:16.524Z,72.63
2018-06-17T12:44:16.518Z,72.56
2018-06-17T12:45:16.509Z,70.44
2018-06-17T12:46:16.484Z,70.15
2018-06-17T12:47:16.486Z,69.87
2018-06-17T12:48:16.461Z,73.47
2018-06-17T12:49:16.451Z,72.18
2018-06-17T12:50:16.453Z,78.63
2018-06-17T12:51:16.425Z,72.27
2018-06-17T12:52:16.418Z,72.75
2018-06-17T12:53:16.401Z,73.53